sensor_id;sensor_type;location;lat;lon;timestamp;temperature;humidity
9837;DHT22;4957;51.412;6.724;2022-11-20T00:01:47;2.00;92.20
9837;DHT22;4957;51.412;6.724;2022-11-20T00:04:13;2.00;92.30
9837;DHT22;4957;51.412;6.724;2022-11-20T00:06:39;2.00;92.30
9837;DHT22;4957;51.412;6.724;2022-11-20T00:09:05;1.90;92.20
9837;DHT22;4957;51.412;6.724;2022-11-20T00:11:31;1.90;92.20
9837;DHT22;4957;51.412;6.724;2022-11-20T00:13:59;1.90;92.20
9837;DHT22;4957;51.412;6.724;2022-11-20T00:16:27;1.90;92.30
9837;DHT22;4957;51.412;6.724;2022-11-20T00:18:54;1.80;92.20
9837;DHT22;4957;51.412;6.724;2022-11-20T00:21:24;1.70;92.20
9837;DHT22;4957;51.412;6.724;2022-11-20T00:23:51;1.70;92.20
9837;DHT22;4957;51.412;6.724;2022-11-20T00:26:19;1.70;92.30
9837;DHT22;4957;51.412;6.724;2022-11-20T00:28:50;1.70;92.40
9837;DHT22;4957;51.412;6.724;2022-11-20T00:31:16;1.70;92.50
9837;DHT22;4957;51.412;6.724;2022-11-20T00:33:43;1.60;92.60
9837;DHT22;4957;51.412;6.724;2022-11-20T00:36:16;1.60;92.60
9837;DHT22;4957;51.412;6.724;2022-11-20T00:38:43;1.60;92.60
9837;DHT22;4957;51.412;6.724;2022-11-20T00:41:10;1.60;92.70
9837;DHT22;4957;51.412;6.724;2022-11-20T00:43:37;1.60;92.80
9837;DHT22;4957;51.412;6.724;2022-11-20T00:46:20;1.60;92.80
9837;DHT22;4957;51.412;6.724;2022-11-20T00:48:46;1.50;92.70
9837;DHT22;4957;51.412;6.724;2022-11-20T00:51:14;1.50;92.80
9837;DHT22;4957;51.412;6.724;2022-11-20T00:53:40;1.50;92.80
9837;DHT22;4957;51.412;6.724;2022-11-20T00:56:09;1.40;92.90
9837;DHT22;4957;51.412;6.724;2022-11-20T00:58:37;1.40;92.90
9837;DHT22;4957;51.412;6.724;2022-11-20T01:03:41;1.40;92.80
9837;DHT22;4957;51.412;6.724;2022-11-20T01:06:18;1.30;92.80
9837;DHT22;4957;51.412;6.724;2022-11-20T01:08:46;1.30;92.80
9837;DHT22;4957;51.412;6.724;2022-11-20T01:11:14;1.30;92.90
9837;DHT22;4957;51.412;6.724;2022-11-20T01:13:40;1.30;92.90
9837;DHT22;4957;51.412;6.724;2022-11-20T01:18:41;1.20;92.90
9837;DHT22;4957;51.412;6.724;2022-11-20T01:21:13;1.20;92.90
9837;DHT22;4957;51.412;6.724;2022-11-20T01:23:40;1.20;93.00
9837;DHT22;4957;51.412;6.724;2022-11-20T01:26:11;1.10;93.00
9837;DHT22;4957;51.412;6.724;2022-11-20T01:28:37;1.20;93.10
9837;DHT22;4957;51.412;6.724;2022-11-20T01:31:18;1.10;93.10
9837;DHT22;4957;51.412;6.724;2022-11-20T01:33:45;1.10;93.10
9837;DHT22;4957;51.412;6.724;2022-11-20T01:36:12;1.10;93.30
9837;DHT22;4957;51.412;6.724;2022-11-20T01:38:38;1.10;93.30
9837;DHT22;4957;51.412;6.724;2022-11-20T01:41:04;1.10;93.50
9837;DHT22;4957;51.412;6.724;2022-11-20T01:43:30;1.10;93.50
9837;DHT22;4957;51.412;6.724;2022-11-20T01:46:18;1.10;93.60
9837;DHT22;4957;51.412;6.724;2022-11-20T01:49:07;1.10;93.60
9837;DHT22;4957;51.412;6.724;2022-11-20T01:51:39;1.10;93.60
9837;DHT22;4957;51.412;6.724;2022-11-20T01:54:09;1.10;93.70
9837;DHT22;4957;51.412;6.724;2022-11-20T01:56:38;1.10;93.80
9837;DHT22;4957;51.412;6.724;2022-11-20T01:59:07;1.20;94.00
9837;DHT22;4957;51.412;6.724;2022-11-20T02:01:33;1.20;94.10
9837;DHT22;4957;51.412;6.724;2022-11-20T02:04:00;1.20;94.10
9837;DHT22;4957;51.412;6.724;2022-11-20T02:06:35;1.20;94.20
9837;DHT22;4957;51.412;6.724;2022-11-20T02:09:01;1.30;94.30
9837;DHT22;4957;51.412;6.724;2022-11-20T02:11:26;1.20;94.30
9837;DHT22;4957;51.412;6.724;2022-11-20T02:13:53;1.20;94.40
9837;DHT22;4957;51.412;6.724;2022-11-20T02:16:28;1.20;94.50
9837;DHT22;4957;51.412;6.724;2022-11-20T02:18:57;1.30;94.60
9837;DHT22;4957;51.412;6.724;2022-11-20T02:21:32;1.30;94.60
9837;DHT22;4957;51.412;6.724;2022-11-20T02:24:03;1.30;94.70
9837;DHT22;4957;51.412;6.724;2022-11-20T02:26:32;1.30;94.70
9837;DHT22;4957;51.412;6.724;2022-11-20T02:28:59;1.30;94.80
9837;DHT22;4957;51.412;6.724;2022-11-20T02:31:26;1.30;94.90
9837;DHT22;4957;51.412;6.724;2022-11-20T02:33:57;1.30;94.90
9837;DHT22;4957;51.412;6.724;2022-11-20T02:36:26;1.30;95.00
9837;DHT22;4957;51.412;6.724;2022-11-20T02:38:52;1.30;95.10
9837;DHT22;4957;51.412;6.724;2022-11-20T02:41:18;1.30;95.10
9837;DHT22;4957;51.412;6.724;2022-11-20T02:43:44;1.30;95.30
9837;DHT22;4957;51.412;6.724;2022-11-20T02:46:09;1.30;95.30
9837;DHT22;4957;51.412;6.724;2022-11-20T02:48:35;1.40;95.40
9837;DHT22;4957;51.412;6.724;2022-11-20T02:51:01;1.30;95.40
9837;DHT22;4957;51.412;6.724;2022-11-20T02:53:27;1.40;95.50
9837;DHT22;4957;51.412;6.724;2022-11-20T02:55:53;1.40;95.60
9837;DHT22;4957;51.412;6.724;2022-11-20T02:58:18;1.40;95.60
9837;DHT22;4957;51.412;6.724;2022-11-20T03:00:44;1.40;95.70
9837;DHT22;4957;51.412;6.724;2022-11-20T03:03:09;1.40;95.80
9837;DHT22;4957;51.412;6.724;2022-11-20T03:05:35;1.40;95.90
9837;DHT22;4957;51.412;6.724;2022-11-20T03:08:01;1.50;96.00
9837;DHT22;4957;51.412;6.724;2022-11-20T03:10:26;1.50;96.10
9837;DHT22;4957;51.412;6.724;2022-11-20T03:12:53;1.50;96.20
9837;DHT22;4957;51.412;6.724;2022-11-20T03:15:20;1.50;96.20
9837;DHT22;4957;51.412;6.724;2022-11-20T03:17:45;1.50;96.30
9837;DHT22;4957;51.412;6.724;2022-11-20T03:20:11;1.50;96.30
9837;DHT22;4957;51.412;6.724;2022-11-20T03:22:37;1.50;96.40
9837;DHT22;4957;51.412;6.724;2022-11-20T03:25:03;1.50;96.50
9837;DHT22;4957;51.412;6.724;2022-11-20T03:27:32;1.50;96.50
9837;DHT22;4957;51.412;6.724;2022-11-20T03:29:59;1.60;96.60
9837;DHT22;4957;51.412;6.724;2022-11-20T03:32:24;1.60;96.70
9837;DHT22;4957;51.412;6.724;2022-11-20T03:34:50;1.60;96.70
9837;DHT22;4957;51.412;6.724;2022-11-20T03:37:15;1.60;96.70
9837;DHT22;4957;51.412;6.724;2022-11-20T03:39:41;1.60;96.80
9837;DHT22;4957;51.412;6.724;2022-11-20T03:42:08;1.60;96.90
9837;DHT22;4957;51.412;6.724;2022-11-20T03:44:53;1.60;96.90
9837;DHT22;4957;51.412;6.724;2022-11-20T03:47:19;1.60;97.00
9837;DHT22;4957;51.412;6.724;2022-11-20T03:49:45;1.60;97.00
9837;DHT22;4957;51.412;6.724;2022-11-20T03:52:11;1.60;97.00
9837;DHT22;4957;51.412;6.724;2022-11-20T03:54:36;1.70;97.10
9837;DHT22;4957;51.412;6.724;2022-11-20T03:57:02;1.70;97.20
9837;DHT22;4957;51.412;6.724;2022-11-20T03:59:28;1.70;97.30
9837;DHT22;4957;51.412;6.724;2022-11-20T04:01:53;1.70;97.30
9837;DHT22;4957;51.412;6.724;2022-11-20T04:04:19;1.70;97.40
9837;DHT22;4957;51.412;6.724;2022-11-20T04:06:45;1.80;97.50
9837;DHT22;4957;51.412;6.724;2022-11-20T04:09:11;1.80;97.50
9837;DHT22;4957;51.412;6.724;2022-11-20T04:11:39;1.80;97.50
9837;DHT22;4957;51.412;6.724;2022-11-20T04:14:06;1.80;97.60
9837;DHT22;4957;51.412;6.724;2022-11-20T04:16:37;1.80;97.60
9837;DHT22;4957;51.412;6.724;2022-11-20T04:19:04;1.80;97.70
9837;DHT22;4957;51.412;6.724;2022-11-20T04:21:31;1.80;97.70
9837;DHT22;4957;51.412;6.724;2022-11-20T04:23:57;1.80;97.80
9837;DHT22;4957;51.412;6.724;2022-11-20T04:26:24;1.90;97.90
9837;DHT22;4957;51.412;6.724;2022-11-20T04:28:50;1.90;97.90
9837;DHT22;4957;51.412;6.724;2022-11-20T04:31:19;1.90;97.90
9837;DHT22;4957;51.412;6.724;2022-11-20T04:33:45;1.90;98.00
9837;DHT22;4957;51.412;6.724;2022-11-20T04:36:18;1.90;98.00
9837;DHT22;4957;51.412;6.724;2022-11-20T04:38:44;1.90;98.10
9837;DHT22;4957;51.412;6.724;2022-11-20T04:41:15;1.90;98.10
9837;DHT22;4957;51.412;6.724;2022-11-20T04:43:41;1.90;98.20
9837;DHT22;4957;51.412;6.724;2022-11-20T04:46:11;1.90;98.20
9837;DHT22;4957;51.412;6.724;2022-11-20T04:48:36;2.00;98.30
9837;DHT22;4957;51.412;6.724;2022-11-20T04:51:05;2.00;98.30
9837;DHT22;4957;51.412;6.724;2022-11-20T04:53:31;2.00;98.40
9837;DHT22;4957;51.412;6.724;2022-11-20T04:56:08;2.00;98.40
9837;DHT22;4957;51.412;6.724;2022-11-20T04:58:35;2.00;98.50
9837;DHT22;4957;51.412;6.724;2022-11-20T05:03:38;2.00;98.50
9837;DHT22;4957;51.412;6.724;2022-11-20T05:06:05;2.00;98.50
9837;DHT22;4957;51.412;6.724;2022-11-20T05:08:31;2.10;98.60
9837;DHT22;4957;51.412;6.724;2022-11-20T05:11:05;2.10;98.60
9837;DHT22;4957;51.412;6.724;2022-11-20T05:13:31;2.10;98.70
9837;DHT22;4957;51.412;6.724;2022-11-20T05:16:10;2.10;98.60
9837;DHT22;4957;51.412;6.724;2022-11-20T05:18:37;2.10;98.80
9837;DHT22;4957;51.412;6.724;2022-11-20T05:21:04;2.10;98.80
9837;DHT22;4957;51.412;6.724;2022-11-20T05:23:31;2.10;98.80
9837;DHT22;4957;51.412;6.724;2022-11-20T05:25:57;2.10;98.80
9837;DHT22;4957;51.412;6.724;2022-11-20T05:28:24;2.10;98.80
9837;DHT22;4957;51.412;6.724;2022-11-20T05:30:50;2.10;98.80
9837;DHT22;4957;51.412;6.724;2022-11-20T05:33:16;2.10;98.80
9837;DHT22;4957;51.412;6.724;2022-11-20T05:35:42;2.20;98.90
9837;DHT22;4957;51.412;6.724;2022-11-20T05:38:08;2.20;98.90
9837;DHT22;4957;51.412;6.724;2022-11-20T05:40:33;2.20;98.90
9837;DHT22;4957;51.412;6.724;2022-11-20T05:43:00;2.20;98.90
9837;DHT22;4957;51.412;6.724;2022-11-20T05:45:25;2.20;99.00
9837;DHT22;4957;51.412;6.724;2022-11-20T05:47:51;2.20;99.00
9837;DHT22;4957;51.412;6.724;2022-11-20T05:50:17;2.20;99.10
9837;DHT22;4957;51.412;6.724;2022-11-20T05:52:42;2.20;99.10
9837;DHT22;4957;51.412;6.724;2022-11-20T05:55:09;2.20;99.10
9837;DHT22;4957;51.412;6.724;2022-11-20T05:57:34;2.20;99.10
9837;DHT22;4957;51.412;6.724;2022-11-20T06:00:00;2.20;99.10
9837;DHT22;4957;51.412;6.724;2022-11-20T06:02:26;2.20;99.10
9837;DHT22;4957;51.412;6.724;2022-11-20T06:04:52;2.20;99.10
9837;DHT22;4957;51.412;6.724;2022-11-20T06:07:17;2.20;99.10
9837;DHT22;4957;51.412;6.724;2022-11-20T06:09:43;2.20;99.10
9837;DHT22;4957;51.412;6.724;2022-11-20T06:12:09;2.20;99.10
9837;DHT22;4957;51.412;6.724;2022-11-20T06:14:34;2.30;99.10
9837;DHT22;4957;51.412;6.724;2022-11-20T06:17:00;2.30;99.10
9837;DHT22;4957;51.412;6.724;2022-11-20T06:19:25;2.30;99.10
9837;DHT22;4957;51.412;6.724;2022-11-20T06:21:51;2.30;99.10
9837;DHT22;4957;51.412;6.724;2022-11-20T06:24:17;2.20;99.10
9837;DHT22;4957;51.412;6.724;2022-11-20T06:26:43;2.30;99.10
9837;DHT22;4957;51.412;6.724;2022-11-20T06:29:09;2.30;99.10
9837;DHT22;4957;51.412;6.724;2022-11-20T06:31:35;2.30;99.10
9837;DHT22;4957;51.412;6.724;2022-11-20T06:34:04;2.30;99.10
9837;DHT22;4957;51.412;6.724;2022-11-20T06:36:31;2.30;99.10
9837;DHT22;4957;51.412;6.724;2022-11-20T06:38:57;2.30;99.10
9837;DHT22;4957;51.412;6.724;2022-11-20T06:41:22;2.30;99.10
9837;DHT22;4957;51.412;6.724;2022-11-20T06:43:49;2.30;99.10
9837;DHT22;4957;51.412;6.724;2022-11-20T06:46:15;2.30;99.10
9837;DHT22;4957;51.412;6.724;2022-11-20T06:48:45;2.30;99.10
9837;DHT22;4957;51.412;6.724;2022-11-20T06:51:12;2.30;99.10
9837;DHT22;4957;51.412;6.724;2022-11-20T06:53:37;2.40;99.10
9837;DHT22;4957;51.412;6.724;2022-11-20T06:56:04;2.30;99.10
9837;DHT22;4957;51.412;6.724;2022-11-20T06:58:31;2.30;99.10
9837;DHT22;4957;51.412;6.724;2022-11-20T07:01:05;2.30;99.10
9837;DHT22;4957;51.412;6.724;2022-11-20T07:03:31;2.40;99.10
9837;DHT22;4957;51.412;6.724;2022-11-20T07:05:58;2.30;99.20
9837;DHT22;4957;51.412;6.724;2022-11-20T07:08:24;2.30;99.20
9837;DHT22;4957;51.412;6.724;2022-11-20T07:10:50;2.30;99.20
9837;DHT22;4957;51.412;6.724;2022-11-20T07:13:16;2.30;99.20
9837;DHT22;4957;51.412;6.724;2022-11-20T07:15:42;2.40;99.30
9837;DHT22;4957;51.412;6.724;2022-11-20T07:18:07;2.30;99.30
9837;DHT22;4957;51.412;6.724;2022-11-20T07:20:33;2.40;99.40
9837;DHT22;4957;51.412;6.724;2022-11-20T07:22:59;2.40;99.40
9837;DHT22;4957;51.412;6.724;2022-11-20T07:25:26;2.40;99.40
9837;DHT22;4957;51.412;6.724;2022-11-20T07:27:51;2.40;99.40
9837;DHT22;4957;51.412;6.724;2022-11-20T07:30:17;2.40;99.40
9837;DHT22;4957;51.412;6.724;2022-11-20T07:32:46;2.40;99.40
9837;DHT22;4957;51.412;6.724;2022-11-20T07:35:13;2.40;99.50
9837;DHT22;4957;51.412;6.724;2022-11-20T07:37:38;2.40;99.50
9837;DHT22;4957;51.412;6.724;2022-11-20T07:40:04;2.40;99.50
9837;DHT22;4957;51.412;6.724;2022-11-20T07:42:30;2.50;99.60
9837;DHT22;4957;51.412;6.724;2022-11-20T07:44:56;2.50;99.60
9837;DHT22;4957;51.412;6.724;2022-11-20T07:47:21;2.50;99.60
9837;DHT22;4957;51.412;6.724;2022-11-20T07:49:47;2.50;99.70
9837;DHT22;4957;51.412;6.724;2022-11-20T07:52:12;2.50;99.70
9837;DHT22;4957;51.412;6.724;2022-11-20T07:54:38;2.50;99.70
9837;DHT22;4957;51.412;6.724;2022-11-20T07:57:04;2.50;99.70
9837;DHT22;4957;51.412;6.724;2022-11-20T07:59:29;2.50;99.80
9837;DHT22;4957;51.412;6.724;2022-11-20T08:01:55;2.50;99.80
9837;DHT22;4957;51.412;6.724;2022-11-20T08:04:21;2.50;99.80
9837;DHT22;4957;51.412;6.724;2022-11-20T08:06:47;2.60;99.90
9837;DHT22;4957;51.412;6.724;2022-11-20T08:09:12;2.60;99.90
9837;DHT22;4957;51.412;6.724;2022-11-20T08:11:38;2.60;99.90
9837;DHT22;4957;51.412;6.724;2022-11-20T08:14:22;2.60;99.90
9837;DHT22;4957;51.412;6.724;2022-11-20T08:16:49;2.60;99.90
9837;DHT22;4957;51.412;6.724;2022-11-20T08:19:17;2.60;99.90
9837;DHT22;4957;51.412;6.724;2022-11-20T08:21:43;2.70;99.90
9837;DHT22;4957;51.412;6.724;2022-11-20T08:24:09;2.70;99.90
9837;DHT22;4957;51.412;6.724;2022-11-20T08:26:37;2.70;99.90
9837;DHT22;4957;51.412;6.724;2022-11-20T08:29:04;2.70;99.90
9837;DHT22;4957;51.412;6.724;2022-11-20T08:31:31;2.80;99.90
9837;DHT22;4957;51.412;6.724;2022-11-20T08:33:57;2.80;99.90
9837;DHT22;4957;51.412;6.724;2022-11-20T08:36:23;2.80;99.90
9837;DHT22;4957;51.412;6.724;2022-11-20T08:38:51;2.80;99.90
9837;DHT22;4957;51.412;6.724;2022-11-20T08:41:17;2.80;99.90
9837;DHT22;4957;51.412;6.724;2022-11-20T08:43:50;2.90;99.90
9837;DHT22;4957;51.412;6.724;2022-11-20T08:46:16;2.90;99.90
9837;DHT22;4957;51.412;6.724;2022-11-20T08:48:42;2.90;99.90
9837;DHT22;4957;51.412;6.724;2022-11-20T08:51:08;2.90;99.90
9837;DHT22;4957;51.412;6.724;2022-11-20T08:53:34;2.90;99.90
9837;DHT22;4957;51.412;6.724;2022-11-20T08:56:00;3.00;99.90
9837;DHT22;4957;51.412;6.724;2022-11-20T08:58:26;3.00;99.90
9837;DHT22;4957;51.412;6.724;2022-11-20T09:00:52;3.00;99.90
9837;DHT22;4957;51.412;6.724;2022-11-20T09:03:18;3.10;99.90
9837;DHT22;4957;51.412;6.724;2022-11-20T09:05:44;3.10;99.90
9837;DHT22;4957;51.412;6.724;2022-11-20T09:08:09;3.10;99.90
9837;DHT22;4957;51.412;6.724;2022-11-20T09:10:35;3.10;99.90
9837;DHT22;4957;51.412;6.724;2022-11-20T09:13:01;3.20;99.90
9837;DHT22;4957;51.412;6.724;2022-11-20T09:15:27;3.20;99.90
9837;DHT22;4957;51.412;6.724;2022-11-20T09:17:54;3.20;99.90
9837;DHT22;4957;51.412;6.724;2022-11-20T09:20:20;3.30;99.90
9837;DHT22;4957;51.412;6.724;2022-11-20T09:22:47;3.30;99.90
9837;DHT22;4957;51.412;6.724;2022-11-20T09:25:12;3.30;99.90
9837;DHT22;4957;51.412;6.724;2022-11-20T09:27:38;3.30;99.90
9837;DHT22;4957;51.412;6.724;2022-11-20T09:30:04;3.30;99.90
9837;DHT22;4957;51.412;6.724;2022-11-20T09:32:30;3.30;99.90
9837;DHT22;4957;51.412;6.724;2022-11-20T09:34:56;3.30;99.90
9837;DHT22;4957;51.412;6.724;2022-11-20T09:37:21;3.40;99.90
9837;DHT22;4957;51.412;6.724;2022-11-20T09:39:47;3.40;99.90
9837;DHT22;4957;51.412;6.724;2022-11-20T09:45:12;3.40;99.90
9837;DHT22;4957;51.412;6.724;2022-11-20T09:50:32;3.40;99.90
9837;DHT22;4957;51.412;6.724;2022-11-20T09:53:20;3.40;99.90
9837;DHT22;4957;51.412;6.724;2022-11-20T09:55:49;3.40;99.90
9837;DHT22;4957;51.412;6.724;2022-11-20T09:58:35;3.40;99.90
9837;DHT22;4957;51.412;6.724;2022-11-20T10:01:15;3.50;99.90
9837;DHT22;4957;51.412;6.724;2022-11-20T10:03:55;3.50;99.90
9837;DHT22;4957;51.412;6.724;2022-11-20T10:06:34;3.50;99.90
9837;DHT22;4957;51.412;6.724;2022-11-20T10:17:16;3.60;99.90
9837;DHT22;4957;51.412;6.724;2022-11-20T10:25:55;3.70;99.90
9837;DHT22;4957;51.412;6.724;2022-11-20T10:31:33;3.80;99.90
9837;DHT22;4957;51.412;6.724;2022-11-20T10:34:03;3.90;99.90
9837;DHT22;4957;51.412;6.724;2022-11-20T10:36:37;3.90;99.90
9837;DHT22;4957;51.412;6.724;2022-11-20T10:39:10;4.00;99.90
9837;DHT22;4957;51.412;6.724;2022-11-20T10:41:41;4.00;99.90
9837;DHT22;4957;51.412;6.724;2022-11-20T10:44:27;4.10;99.90
9837;DHT22;4957;51.412;6.724;2022-11-20T10:47:21;4.20;99.90
9837;DHT22;4957;51.412;6.724;2022-11-20T10:49:52;4.30;99.90
9837;DHT22;4957;51.412;6.724;2022-11-20T10:54:58;4.50;99.90
9837;DHT22;4957;51.412;6.724;2022-11-20T10:57:35;4.60;99.90
9837;DHT22;4957;51.412;6.724;2022-11-20T11:00:10;4.60;99.90
9837;DHT22;4957;51.412;6.724;2022-11-20T11:02:41;4.70;99.90
9837;DHT22;4957;51.412;6.724;2022-11-20T11:07:58;4.80;99.90
9837;DHT22;4957;51.412;6.724;2022-11-20T11:10:37;4.90;99.90
9837;DHT22;4957;51.412;6.724;2022-11-20T11:13:06;4.90;99.90
9837;DHT22;4957;51.412;6.724;2022-11-20T11:15:40;5.00;99.90
9837;DHT22;4957;51.412;6.724;2022-11-20T11:18:10;5.10;99.90
9837;DHT22;4957;51.412;6.724;2022-11-20T11:20:37;5.10;99.90
9837;DHT22;4957;51.412;6.724;2022-11-20T11:23:03;5.10;99.90
9837;DHT22;4957;51.412;6.724;2022-11-20T11:25:32;5.20;99.90
9837;DHT22;4957;51.412;6.724;2022-11-20T11:28:04;5.20;99.90
9837;DHT22;4957;51.412;6.724;2022-11-20T11:30:41;5.30;99.90
9837;DHT22;4957;51.412;6.724;2022-11-20T11:33:11;5.30;99.90
9837;DHT22;4957;51.412;6.724;2022-11-20T11:35:52;5.40;99.90
9837;DHT22;4957;51.412;6.724;2022-11-20T11:38:38;5.40;99.90
9837;DHT22;4957;51.412;6.724;2022-11-20T11:41:07;5.50;99.90
9837;DHT22;4957;51.412;6.724;2022-11-20T11:43:36;5.50;99.90
9837;DHT22;4957;51.412;6.724;2022-11-20T11:54:10;5.60;99.90
9837;DHT22;4957;51.412;6.724;2022-11-20T11:56:39;5.60;99.90
9837;DHT22;4957;51.412;6.724;2022-11-20T11:59:10;5.60;99.90
9837;DHT22;4957;51.412;6.724;2022-11-20T12:01:54;5.60;99.90
9837;DHT22;4957;51.412;6.724;2022-11-20T12:04:43;5.60;99.90
9837;DHT22;4957;51.412;6.724;2022-11-20T12:07:31;5.60;99.90
9837;DHT22;4957;51.412;6.724;2022-11-20T12:10:01;5.60;99.90
9837;DHT22;4957;51.412;6.724;2022-11-20T12:12:36;5.60;99.90
9837;DHT22;4957;51.412;6.724;2022-11-20T12:15:09;5.60;99.90
9837;DHT22;4957;51.412;6.724;2022-11-20T12:17:36;5.60;99.90
9837;DHT22;4957;51.412;6.724;2022-11-20T12:20:02;5.60;99.90
9837;DHT22;4957;51.412;6.724;2022-11-20T12:22:47;5.60;99.90
9837;DHT22;4957;51.412;6.724;2022-11-20T12:25:24;5.70;99.90
9837;DHT22;4957;51.412;6.724;2022-11-20T12:28:21;5.70;99.90
9837;DHT22;4957;51.412;6.724;2022-11-20T12:39:31;5.70;99.90
9837;DHT22;4957;51.412;6.724;2022-11-20T12:42:22;5.80;99.90
9837;DHT22;4957;51.412;6.724;2022-11-20T12:50:35;5.80;99.90
9837;DHT22;4957;51.412;6.724;2022-11-20T12:53:30;5.80;99.90
9837;DHT22;4957;51.412;6.724;2022-11-20T13:07:11;5.90;99.90
9837;DHT22;4957;51.412;6.724;2022-11-20T13:09:46;5.90;99.90
9837;DHT22;4957;51.412;6.724;2022-11-20T13:12:19;6.00;99.90
9837;DHT22;4957;51.412;6.724;2022-11-20T13:20:16;6.00;99.90
9837;DHT22;4957;51.412;6.724;2022-11-20T13:22:51;6.00;99.90
9837;DHT22;4957;51.412;6.724;2022-11-20T13:25:33;6.00;99.90
9837;DHT22;4957;51.412;6.724;2022-11-20T13:30:36;6.00;99.90
9837;DHT22;4957;51.412;6.724;2022-11-20T13:33:23;6.10;99.90
9837;DHT22;4957;51.412;6.724;2022-11-20T13:36:06;6.10;99.90
9837;DHT22;4957;51.412;6.724;2022-11-20T13:38:48;6.00;99.90
9837;DHT22;4957;51.412;6.724;2022-11-20T13:41:35;6.10;99.90
9837;DHT22;4957;51.412;6.724;2022-11-20T13:44:10;6.10;99.90
9837;DHT22;4957;51.412;6.724;2022-11-20T13:46:43;6.10;99.90
9837;DHT22;4957;51.412;6.724;2022-11-20T13:49:39;6.00;99.90
9837;DHT22;4957;51.412;6.724;2022-11-20T13:52:22;6.10;99.90
9837;DHT22;4957;51.412;6.724;2022-11-20T13:55:11;6.10;99.90
9837;DHT22;4957;51.412;6.724;2022-11-20T13:57:57;6.10;99.90
9837;DHT22;4957;51.412;6.724;2022-11-20T14:00:26;6.10;99.90
9837;DHT22;4957;51.412;6.724;2022-11-20T14:05:26;6.10;99.90
9837;DHT22;4957;51.412;6.724;2022-11-20T14:07:52;6.10;99.90
9837;DHT22;4957;51.412;6.724;2022-11-20T14:10:25;6.10;99.90
9837;DHT22;4957;51.412;6.724;2022-11-20T14:12:51;6.10;99.90
9837;DHT22;4957;51.412;6.724;2022-11-20T14:15:32;6.10;99.90
9837;DHT22;4957;51.412;6.724;2022-11-20T14:17:59;6.10;99.90
9837;DHT22;4957;51.412;6.724;2022-11-20T14:20:27;6.10;99.90
9837;DHT22;4957;51.412;6.724;2022-11-20T14:22:55;6.10;99.90
9837;DHT22;4957;51.412;6.724;2022-11-20T14:25:25;6.10;99.90
9837;DHT22;4957;51.412;6.724;2022-11-20T14:27:58;6.10;99.90
9837;DHT22;4957;51.412;6.724;2022-11-20T14:30:29;6.10;99.90
9837;DHT22;4957;51.412;6.724;2022-11-20T14:33:03;6.10;99.90
9837;DHT22;4957;51.412;6.724;2022-11-20T14:35:31;6.10;99.90
9837;DHT22;4957;51.412;6.724;2022-11-20T14:37:57;6.10;99.90
9837;DHT22;4957;51.412;6.724;2022-11-20T14:40:33;6.10;99.90
9837;DHT22;4957;51.412;6.724;2022-11-20T14:43:20;6.10;99.90
9837;DHT22;4957;51.412;6.724;2022-11-20T14:45:54;6.20;99.90
9837;DHT22;4957;51.412;6.724;2022-11-20T14:48:26;6.20;99.90
9837;DHT22;4957;51.412;6.724;2022-11-20T14:50:53;6.10;99.90
9837;DHT22;4957;51.412;6.724;2022-11-20T14:53:23;6.10;99.90
9837;DHT22;4957;51.412;6.724;2022-11-20T14:55:56;6.10;99.90
9837;DHT22;4957;51.412;6.724;2022-11-20T14:58:24;6.10;99.90
9837;DHT22;4957;51.412;6.724;2022-11-20T15:01:02;6.10;99.90
9837;DHT22;4957;51.412;6.724;2022-11-20T15:03:37;6.10;99.90
9837;DHT22;4957;51.412;6.724;2022-11-20T15:06:04;6.10;99.90
9837;DHT22;4957;51.412;6.724;2022-11-20T15:08:30;6.10;99.90
9837;DHT22;4957;51.412;6.724;2022-11-20T15:10:57;6.10;99.90
9837;DHT22;4957;51.412;6.724;2022-11-20T15:13:34;6.10;99.90
9837;DHT22;4957;51.412;6.724;2022-11-20T15:16:03;6.10;99.90
9837;DHT22;4957;51.412;6.724;2022-11-20T15:18:32;6.10;99.90
9837;DHT22;4957;51.412;6.724;2022-11-20T15:21:01;6.10;99.90
9837;DHT22;4957;51.412;6.724;2022-11-20T15:23:28;6.10;99.90
9837;DHT22;4957;51.412;6.724;2022-11-20T15:25:55;6.10;99.90
9837;DHT22;4957;51.412;6.724;2022-11-20T15:28:22;6.00;99.90
9837;DHT22;4957;51.412;6.724;2022-11-20T15:30:50;6.00;99.90
9837;DHT22;4957;51.412;6.724;2022-11-20T15:33:16;6.00;99.90
9837;DHT22;4957;51.412;6.724;2022-11-20T15:35:42;6.00;99.90
9837;DHT22;4957;51.412;6.724;2022-11-20T15:38:08;6.10;99.90
9837;DHT22;4957;51.412;6.724;2022-11-20T15:40:34;6.10;99.90
9837;DHT22;4957;51.412;6.724;2022-11-20T15:43:00;6.10;99.90
9837;DHT22;4957;51.412;6.724;2022-11-20T15:45:43;6.20;99.90
9837;DHT22;4957;51.412;6.724;2022-11-20T15:48:13;6.20;99.90
9837;DHT22;4957;51.412;6.724;2022-11-20T15:53:14;6.30;99.90
9837;DHT22;4957;51.412;6.724;2022-11-20T15:55:40;6.30;99.90
9837;DHT22;4957;51.412;6.724;2022-11-20T15:58:05;6.30;99.90
9837;DHT22;4957;51.412;6.724;2022-11-20T16:00:31;6.30;99.90
9837;DHT22;4957;51.412;6.724;2022-11-20T16:02:57;6.40;99.90
9837;DHT22;4957;51.412;6.724;2022-11-20T16:05:22;6.30;99.90
9837;DHT22;4957;51.412;6.724;2022-11-20T16:07:51;6.30;99.90
9837;DHT22;4957;51.412;6.724;2022-11-20T16:10:17;6.30;99.90
9837;DHT22;4957;51.412;6.724;2022-11-20T16:12:43;6.20;99.90
9837;DHT22;4957;51.412;6.724;2022-11-20T16:15:28;6.20;99.90
9837;DHT22;4957;51.412;6.724;2022-11-20T16:18:17;6.20;99.90
9837;DHT22;4957;51.412;6.724;2022-11-20T16:20:44;6.20;99.90
9837;DHT22;4957;51.412;6.724;2022-11-20T16:23:10;6.10;99.90
9837;DHT22;4957;51.412;6.724;2022-11-20T16:25:36;6.10;99.90
9837;DHT22;4957;51.412;6.724;2022-11-20T16:28:02;6.10;99.90
9837;DHT22;4957;51.412;6.724;2022-11-20T16:30:28;6.10;99.90
9837;DHT22;4957;51.412;6.724;2022-11-20T16:32:54;6.10;99.90
9837;DHT22;4957;51.412;6.724;2022-11-20T16:35:20;6.10;99.90
9837;DHT22;4957;51.412;6.724;2022-11-20T16:37:45;6.10;99.90
9837;DHT22;4957;51.412;6.724;2022-11-20T16:40:11;6.10;99.90
9837;DHT22;4957;51.412;6.724;2022-11-20T16:42:37;6.10;99.90
9837;DHT22;4957;51.412;6.724;2022-11-20T16:45:04;6.10;99.90
9837;DHT22;4957;51.412;6.724;2022-11-20T16:47:33;6.10;99.90
9837;DHT22;4957;51.412;6.724;2022-11-20T16:50:03;6.00;99.90
9837;DHT22;4957;51.412;6.724;2022-11-20T16:52:30;6.00;99.90
9837;DHT22;4957;51.412;6.724;2022-11-20T16:54:56;6.10;99.90
9837;DHT22;4957;51.412;6.724;2022-11-20T16:57:22;6.00;99.90
9837;DHT22;4957;51.412;6.724;2022-11-20T16:59:48;6.00;99.90
9837;DHT22;4957;51.412;6.724;2022-11-20T17:02:14;6.10;99.90
9837;DHT22;4957;51.412;6.724;2022-11-20T17:04:40;6.10;99.90
9837;DHT22;4957;51.412;6.724;2022-11-20T17:07:06;6.10;99.90
9837;DHT22;4957;51.412;6.724;2022-11-20T17:09:32;6.20;99.90
9837;DHT22;4957;51.412;6.724;2022-11-20T17:11:58;6.10;99.90
9837;DHT22;4957;51.412;6.724;2022-11-20T17:14:23;6.20;99.90
9837;DHT22;4957;51.412;6.724;2022-11-20T17:16:49;6.20;99.90
9837;DHT22;4957;51.412;6.724;2022-11-20T17:19:15;6.10;99.90
9837;DHT22;4957;51.412;6.724;2022-11-20T17:21:41;6.20;99.90
9837;DHT22;4957;51.412;6.724;2022-11-20T17:24:09;6.20;99.90
9837;DHT22;4957;51.412;6.724;2022-11-20T17:26:37;6.10;99.90
9837;DHT22;4957;51.412;6.724;2022-11-20T17:29:05;6.10;99.90
9837;DHT22;4957;51.412;6.724;2022-11-20T17:31:33;6.10;99.90
9837;DHT22;4957;51.412;6.724;2022-11-20T17:33:59;6.10;99.90
9837;DHT22;4957;51.412;6.724;2022-11-20T17:36:26;6.10;99.90
9837;DHT22;4957;51.412;6.724;2022-11-20T17:38:52;6.10;99.90
9837;DHT22;4957;51.412;6.724;2022-11-20T17:41:22;6.10;99.90
9837;DHT22;4957;51.412;6.724;2022-11-20T17:43:48;6.10;99.90
9837;DHT22;4957;51.412;6.724;2022-11-20T17:46:19;6.10;99.90
9837;DHT22;4957;51.412;6.724;2022-11-20T17:48:46;6.20;99.90
9837;DHT22;4957;51.412;6.724;2022-11-20T17:51:20;6.20;99.90
9837;DHT22;4957;51.412;6.724;2022-11-20T17:53:49;6.20;99.90